Search for airport 
image banner adimage banner adimage banner ad
image banner ad

73PA - Gilbert

Located in York, United States

ICAO - 73PA, IATA -

Data provided by Airmate  

General information

Coordinates: N39°55'46" W76°46'15"
Elevation is 530 feet MSL.
Magnetic variation is -10° East
View others Airports in Pennsylvania

Operational data

Special qualification required
Current time UTC:
Current local time:
Weather at : KTHV - York ( 9 km )
METAR: KTHV 132053Z AUTO 21005KT 10SM OVC031 24/18 A2986 RMK AO2 SLP109 60000 T02440183 58014 $
View NOTAMs / SUP AIP / TFR affecting this airport [VIEW]
Communications frequencies: [VIEW]

Runways:

RWY identifierQFULength (ft)Width (ft)SurfaceLDA (ft)
042220125GRASS
222220125GRASS

Airport contact information

Address: York United States

Satellite view of 73PA